Terminal Aerodrome Forecast
Issued by NWS

Home | Current Version | Previous Version | Text Only | Print | Product List | Glossary Off
Versions: 1 2 3 4 5 6 7 8 9 10 11 12 13

856
FTUS43 KABR 271931 AAB
TAFATY
TAF AMD
KATY 271931Z 2720/2818 33015G20KT P6SM FEW020
     FM280200 32004KT P6SM FEW150
     FM281400 01008KT P6SM FEW250=

USA.gov is the U.S. government's official web portal to all federal, state and local government web resources and services.